sensor_id;sensor_type;location;lat;lon;timestamp;pressure;altitude;pressure_sealevel;temperature;humidity
53659;BME280;41524;35.624;139.698;2023-02-17T00:00:17;102607.00;;;6.57;32.04
53659;BME280;41524;35.624;139.698;2023-02-17T00:05:11;102608.00;;;6.41;32.43
53659;BME280;41524;35.624;139.698;2023-02-17T00:10:16;102606.00;;;6.57;33.82
53659;BME280;41524;35.624;139.698;2023-02-17T00:15:11;102605.00;;;5.12;32.04
53659;BME280;41524;35.624;139.698;2023-02-17T00:20:11;102609.00;;;5.75;31.33
53659;BME280;41524;35.624;139.698;2023-02-17T00:25:21;102612.00;;;6.02;31.58
53659;BME280;41524;35.624;139.698;2023-02-17T00:30:11;102614.00;;;6.33;32.39
53659;BME280;41524;35.624;139.698;2023-02-17T00:35:12;102614.00;;;6.73;32.59
53659;BME280;41524;35.624;139.698;2023-02-17T00:40:12;102610.00;;;5.77;32.43
53659;BME280;41524;35.624;139.698;2023-02-17T00:45:11;102610.00;;;6.64;31.60
53659;BME280;41524;35.624;139.698;2023-02-17T00:50:10;102608.00;;;5.72;31.59
53659;BME280;41524;35.624;139.698;2023-02-17T00:55:11;102613.00;;;7.61;33.27
53659;BME280;41524;35.624;139.698;2023-02-17T01:00:12;102608.00;;;7.61;31.00
53659;BME280;41524;35.624;139.698;2023-02-17T01:05:14;102614.00;;;6.56;31.16
53659;BME280;41524;35.624;139.698;2023-02-17T01:10:15;102613.00;;;8.36;28.80
53659;BME280;41524;35.624;139.698;2023-02-17T01:15:12;102613.00;;;7.02;30.09
53659;BME280;41524;35.624;139.698;2023-02-17T01:20:12;102607.00;;;9.54;29.96
53659;BME280;41524;35.624;139.698;2023-02-17T01:25:12;102609.00;;;8.36;29.97
53659;BME280;41524;35.624;139.698;2023-02-17T01:30:11;102607.00;;;8.06;29.27
53659;BME280;41524;35.624;139.698;2023-02-17T01:35:11;102602.00;;;8.36;29.38
53659;BME280;41524;35.624;139.698;2023-02-17T01:40:13;102589.00;;;8.00;30.00
53659;BME280;41524;35.624;139.698;2023-02-17T01:45:37;102592.00;;;7.76;30.19
53659;BME280;41524;35.624;139.698;2023-02-17T01:50:18;102578.00;;;9.64;29.03
53659;BME280;41524;35.624;139.698;2023-02-17T01:55:21;102574.00;;;10.26;29.17
53659;BME280;41524;35.624;139.698;2023-02-17T02:00:19;102573.00;;;9.21;29.07
53659;BME280;41524;35.624;139.698;2023-02-17T02:05:18;102561.00;;;6.16;32.25
53659;BME280;41524;35.624;139.698;2023-02-17T02:10:13;102556.00;;;6.36;33.16
53659;BME280;41524;35.624;139.698;2023-02-17T02:15:22;102555.00;;;5.20;33.78
53659;BME280;41524;35.624;139.698;2023-02-17T02:21:24;102535.00;;;7.06;33.03
53659;BME280;41524;35.624;139.698;2023-02-17T02:25:24;102509.00;;;9.84;31.56
53659;BME280;41524;35.624;139.698;2023-02-17T02:30:26;102502.00;;;7.69;30.93
53659;BME280;41524;35.624;139.698;2023-02-17T02:35:20;102486.00;;;8.72;29.82
53659;BME280;41524;35.624;139.698;2023-02-17T02:40:11;102481.00;;;7.84;31.59
53659;BME280;41524;35.624;139.698;2023-02-17T02:45:12;102469.00;;;10.85;28.75
53659;BME280;41524;35.624;139.698;2023-02-17T02:50:13;102462.00;;;9.34;29.72
53659;BME280;41524;35.624;139.698;2023-02-17T02:55:15;102457.00;;;9.72;30.37
53659;BME280;41524;35.624;139.698;2023-02-17T03:00:16;102452.00;;;9.16;30.20
53659;BME280;41524;35.624;139.698;2023-02-17T03:05:15;102443.00;;;8.08;32.40
53659;BME280;41524;35.624;139.698;2023-02-17T03:10:14;102426.00;;;9.60;30.54
53659;BME280;41524;35.624;139.698;2023-02-17T03:15:21;102414.00;;;9.00;31.52
53659;BME280;41524;35.624;139.698;2023-02-17T03:20:17;102402.00;;;10.46;28.73
53659;BME280;41524;35.624;139.698;2023-02-17T03:25:11;102388.00;;;9.93;29.08
53659;BME280;41524;35.624;139.698;2023-02-17T03:30:16;102381.00;;;7.84;32.27
53659;BME280;41524;35.624;139.698;2023-02-17T03:35:18;102377.00;;;6.53;32.47
53659;BME280;41524;35.624;139.698;2023-02-17T03:40:11;102358.00;;;11.21;28.47
53659;BME280;41524;35.624;139.698;2023-02-17T03:45:12;102362.00;;;10.12;28.33
53659;BME280;41524;35.624;139.698;2023-02-17T03:50:17;102334.00;;;11.63;27.46
53659;BME280;41524;35.624;139.698;2023-02-17T03:55:10;102338.00;;;8.06;31.25
53659;BME280;41524;35.624;139.698;2023-02-17T04:00:11;102327.00;;;8.70;30.98
53659;BME280;41524;35.624;139.698;2023-02-17T04:05:11;102322.00;;;11.66;28.46
53659;BME280;41524;35.624;139.698;2023-02-17T04:10:11;102318.00;;;8.58;31.57
53659;BME280;41524;35.624;139.698;2023-02-17T04:15:11;102306.00;;;11.34;27.82
53659;BME280;41524;35.624;139.698;2023-02-17T04:20:18;102312.00;;;9.33;30.26
53659;BME280;41524;35.624;139.698;2023-02-17T04:25:12;102303.00;;;12.31;27.27
53659;BME280;41524;35.624;139.698;2023-02-17T04:30:12;102296.00;;;11.32;27.86
53659;BME280;41524;35.624;139.698;2023-02-17T04:35:11;102294.00;;;11.06;28.29
53659;BME280;41524;35.624;139.698;2023-02-17T04:40:21;102292.00;;;10.49;28.29
53659;BME280;41524;35.624;139.698;2023-02-17T04:45:12;102283.00;;;12.07;27.21
53659;BME280;41524;35.624;139.698;2023-02-17T04:50:11;102277.00;;;11.82;27.48
53659;BME280;41524;35.624;139.698;2023-02-17T04:55:11;102269.00;;;12.19;26.02
53659;BME280;41524;35.624;139.698;2023-02-17T05:00:12;102257.00;;;12.76;25.25
53659;BME280;41524;35.624;139.698;2023-02-17T05:05:11;102252.00;;;12.70;24.97
53659;BME280;41524;35.624;139.698;2023-02-17T05:10:12;102246.00;;;12.54;25.33
53659;BME280;41524;35.624;139.698;2023-02-17T05:15:11;102250.00;;;10.81;26.75
53659;BME280;41524;35.624;139.698;2023-02-17T05:20:11;102245.00;;;10.97;26.70
53659;BME280;41524;35.624;139.698;2023-02-17T05:25:21;102244.00;;;8.91;28.60
53659;BME280;41524;35.624;139.698;2023-02-17T05:30:11;102240.00;;;9.19;29.82
53659;BME280;41524;35.624;139.698;2023-02-17T05:35:13;102230.00;;;10.70;27.47
53659;BME280;41524;35.624;139.698;2023-02-17T05:40:13;102233.00;;;10.93;26.34
53659;BME280;41524;35.624;139.698;2023-02-17T05:45:16;102237.00;;;10.22;27.61
53659;BME280;41524;35.624;139.698;2023-02-17T05:50:12;102233.00;;;9.99;27.53
53659;BME280;41524;35.624;139.698;2023-02-17T05:55:15;102233.00;;;7.54;29.59
53659;BME280;41524;35.624;139.698;2023-02-17T06:00:12;102246.00;;;10.94;27.36
53659;BME280;41524;35.624;139.698;2023-02-17T06:05:11;102237.00;;;10.64;26.15
53659;BME280;41524;35.624;139.698;2023-02-17T06:10:11;102240.00;;;10.48;27.02
53659;BME280;41524;35.624;139.698;2023-02-17T06:15:10;102245.00;;;11.30;25.48
53659;BME280;41524;35.624;139.698;2023-02-17T06:20:12;102234.00;;;8.47;27.29
53659;BME280;41524;35.624;139.698;2023-02-17T06:25:16;102233.00;;;9.28;28.03
53659;BME280;41524;35.624;139.698;2023-02-17T06:30:13;102222.00;;;11.38;26.00
53659;BME280;41524;35.624;139.698;2023-02-17T06:35:10;102226.00;;;11.21;26.08
53659;BME280;41524;35.624;139.698;2023-02-17T06:40:12;102226.00;;;13.13;23.24
53659;BME280;41524;35.624;139.698;2023-02-17T06:45:10;102224.00;;;19.47;18.32
53659;BME280;41524;35.624;139.698;2023-02-17T06:50:11;102223.00;;;21.44;16.46
53659;BME280;41524;35.624;139.698;2023-02-17T06:55:11;102223.00;;;17.32;18.32
53659;BME280;41524;35.624;139.698;2023-02-17T07:00:12;102231.00;;;18.67;17.79
53659;BME280;41524;35.624;139.698;2023-02-17T07:05:11;102221.00;;;19.46;16.91
53659;BME280;41524;35.624;139.698;2023-02-17T07:10:16;102225.00;;;16.80;18.96
53659;BME280;41524;35.624;139.698;2023-02-17T07:15:11;102219.00;;;18.10;18.72
53659;BME280;41524;35.624;139.698;2023-02-17T07:20:11;102230.00;;;10.04;25.99
53659;BME280;41524;35.624;139.698;2023-02-17T07:25:11;102235.00;;;10.09;27.63
53659;BME280;41524;35.624;139.698;2023-02-17T07:30:14;102243.00;;;9.00;29.38
53659;BME280;41524;35.624;139.698;2023-02-17T07:35:11;102256.00;;;9.14;29.20
53659;BME280;41524;35.624;139.698;2023-02-17T07:40:12;102263.00;;;9.56;28.73
53659;BME280;41524;35.624;139.698;2023-02-17T07:45:16;102273.00;;;8.75;30.15
53659;BME280;41524;35.624;139.698;2023-02-17T07:50:12;102268.00;;;9.28;29.85
53659;BME280;41524;35.624;139.698;2023-02-17T07:55:10;102273.00;;;6.84;32.75
53659;BME280;41524;35.624;139.698;2023-02-17T08:00:16;102265.00;;;9.26;30.29
53659;BME280;41524;35.624;139.698;2023-02-17T08:05:15;102265.00;;;8.44;30.79
53659;BME280;41524;35.624;139.698;2023-02-17T08:10:12;102274.00;;;8.67;30.90
53659;BME280;41524;35.624;139.698;2023-02-17T08:15:12;102289.00;;;7.23;32.01
53659;BME280;41524;35.624;139.698;2023-02-17T08:20:16;102297.00;;;8.98;31.13
53659;BME280;41524;35.624;139.698;2023-02-17T08:25:11;102297.00;;;9.09;30.57
53659;BME280;41524;35.624;139.698;2023-02-17T08:30:12;102294.00;;;8.11;30.96
53659;BME280;41524;35.624;139.698;2023-02-17T08:35:10;102295.00;;;8.50;30.54
53659;BME280;41524;35.624;139.698;2023-02-17T08:40:11;102295.00;;;9.00;30.64
53659;BME280;41524;35.624;139.698;2023-02-17T08:45:12;102298.00;;;8.70;30.51
53659;BME280;41524;35.624;139.698;2023-02-17T08:50:16;102301.00;;;9.18;30.03
53659;BME280;41524;35.624;139.698;2023-02-17T08:55:11;102303.00;;;9.11;30.12
53659;BME280;41524;35.624;139.698;2023-02-17T09:00:12;102291.00;;;8.99;30.26
53659;BME280;41524;35.624;139.698;2023-02-17T09:05:13;102299.00;;;8.98;31.63
53659;BME280;41524;35.624;139.698;2023-02-17T09:10:13;102299.00;;;8.53;32.60
53659;BME280;41524;35.624;139.698;2023-02-17T09:15:12;102310.00;;;8.02;33.53
53659;BME280;41524;35.624;139.698;2023-02-17T09:20:11;102315.00;;;8.72;32.61
53659;BME280;41524;35.624;139.698;2023-02-17T09:25:16;102319.00;;;7.27;35.39
53659;BME280;41524;35.624;139.698;2023-02-17T09:30:17;102322.00;;;7.87;34.99
53659;BME280;41524;35.624;139.698;2023-02-17T09:35:17;102320.00;;;7.96;34.14
53659;BME280;41524;35.624;139.698;2023-02-17T09:40:17;102323.00;;;8.15;34.00
53659;BME280;41524;35.624;139.698;2023-02-17T09:45:20;102320.00;;;8.52;34.32
53659;BME280;41524;35.624;139.698;2023-02-17T09:50:15;102323.00;;;7.85;35.80
53659;BME280;41524;35.624;139.698;2023-02-17T09:55:16;102316.00;;;8.09;34.85
53659;BME280;41524;35.624;139.698;2023-02-17T10:00:19;102314.00;;;7.71;35.08
53659;BME280;41524;35.624;139.698;2023-02-17T10:05:15;102307.00;;;7.79;35.28
53659;BME280;41524;35.624;139.698;2023-02-17T10:10:17;102302.00;;;7.78;34.68
53659;BME280;41524;35.624;139.698;2023-02-17T10:15:19;102309.00;;;7.36;35.66
53659;BME280;41524;35.624;139.698;2023-02-17T10:20:19;102314.00;;;7.22;36.36
53659;BME280;41524;35.624;139.698;2023-02-17T10:25:16;102308.00;;;7.42;36.50
53659;BME280;41524;35.624;139.698;2023-02-17T10:30:29;102309.00;;;6.91;36.85
53659;BME280;41524;35.624;139.698;2023-02-17T10:35:15;102310.00;;;7.25;36.68
53659;BME280;41524;35.624;139.698;2023-02-17T10:40:15;102316.00;;;7.29;36.72
53659;BME280;41524;35.624;139.698;2023-02-17T10:45:24;102310.00;;;6.95;37.06
53659;BME280;41524;35.624;139.698;2023-02-17T10:55:20;102306.00;;;7.12;37.10
53659;BME280;41524;35.624;139.698;2023-02-17T11:00:16;102311.00;;;7.23;37.46
53659;BME280;41524;35.624;139.698;2023-02-17T11:05:35;102311.00;;;7.20;36.96
53659;BME280;41524;35.624;139.698;2023-02-17T11:15:16;102323.00;;;7.38;38.11
53659;BME280;41524;35.624;139.698;2023-02-17T11:20:31;102332.00;;;8.44;36.22
53659;BME280;41524;35.624;139.698;2023-02-17T11:25:23;102333.00;;;6.69;38.24
53659;BME280;41524;35.624;139.698;2023-02-17T11:30:16;102337.00;;;7.14;38.26
53659;BME280;41524;35.624;139.698;2023-02-17T11:35:43;102342.00;;;7.48;37.56
53659;BME280;41524;35.624;139.698;2023-02-17T11:40:24;102360.00;;;6.93;38.72
53659;BME280;41524;35.624;139.698;2023-02-17T11:45:17;102368.00;;;6.72;39.03
53659;BME280;41524;35.624;139.698;2023-02-17T11:50:22;102365.00;;;7.26;38.23
53659;BME280;41524;35.624;139.698;2023-02-17T11:55:21;102374.00;;;7.01;39.04
53659;BME280;41524;35.624;139.698;2023-02-17T12:00:15;102377.00;;;6.60;38.85
53659;BME280;41524;35.624;139.698;2023-02-17T12:05:23;102372.00;;;6.79;39.53
53659;BME280;41524;35.624;139.698;2023-02-17T12:10:20;102378.00;;;6.40;40.19
53659;BME280;41524;35.624;139.698;2023-02-17T12:15:28;102384.00;;;6.53;40.38
53659;BME280;41524;35.624;139.698;2023-02-17T12:20:32;102385.00;;;6.79;40.33
53659;BME280;41524;35.624;139.698;2023-02-17T12:25:23;102385.00;;;6.72;40.93
53659;BME280;41524;35.624;139.698;2023-02-17T12:30:24;102398.00;;;6.46;41.21
53659;BME280;41524;35.624;139.698;2023-02-17T12:35:17;102397.00;;;6.54;40.94
53659;BME280;41524;35.624;139.698;2023-02-17T12:40:31;102395.00;;;6.82;41.31
53659;BME280;41524;35.624;139.698;2023-02-17T12:45:20;102401.00;;;6.13;42.03
53659;BME280;41524;35.624;139.698;2023-02-17T12:50:18;102395.00;;;5.56;42.29
53659;BME280;41524;35.624;139.698;2023-02-17T12:55:15;102398.00;;;6.46;41.43
53659;BME280;41524;35.624;139.698;2023-02-17T13:00:20;102397.00;;;5.13;43.17
53659;BME280;41524;35.624;139.698;2023-02-17T13:05:23;102391.00;;;5.87;42.83
53659;BME280;41524;35.624;139.698;2023-02-17T13:10:31;102392.00;;;5.92;42.59
53659;BME280;41524;35.624;139.698;2023-02-17T13:15:40;102383.00;;;5.49;42.72
53659;BME280;41524;35.624;139.698;2023-02-17T13:21:31;102381.00;;;6.04;41.96
53659;BME280;41524;35.624;139.698;2023-02-17T13:25:13;102373.00;;;5.83;41.68
53659;BME280;41524;35.624;139.698;2023-02-17T13:30:36;102374.00;;;5.35;42.43
53659;BME280;41524;35.624;139.698;2023-02-17T13:35:33;102382.00;;;5.52;42.11
53659;BME280;41524;35.624;139.698;2023-02-17T13:40:59;102379.00;;;5.66;41.75
53659;BME280;41524;35.624;139.698;2023-02-17T13:45:19;102374.00;;;5.88;41.01
53659;BME280;41524;35.624;139.698;2023-02-17T13:50:33;102365.00;;;5.55;41.80
53659;BME280;41524;35.624;139.698;2023-02-17T13:55:19;102362.00;;;5.56;42.29
53659;BME280;41524;35.624;139.698;2023-02-17T14:00:22;102365.00;;;5.85;41.68
53659;BME280;41524;35.624;139.698;2023-02-17T14:05:18;102377.00;;;5.90;41.14
53659;BME280;41524;35.624;139.698;2023-02-17T14:15:16;102382.00;;;5.51;41.84
53659;BME280;41524;35.624;139.698;2023-02-17T14:20:27;102380.00;;;5.49;42.28
53659;BME280;41524;35.624;139.698;2023-02-17T14:25:27;102385.00;;;5.50;41.85
53659;BME280;41524;35.624;139.698;2023-02-17T14:30:26;102387.00;;;5.15;41.90
53659;BME280;41524;35.624;139.698;2023-02-17T14:35:22;102386.00;;;5.12;42.50
53659;BME280;41524;35.624;139.698;2023-02-17T14:40:17;102385.00;;;4.74;42.54
53659;BME280;41524;35.624;139.698;2023-02-17T14:45:17;102385.00;;;5.14;42.41
53659;BME280;41524;35.624;139.698;2023-02-17T14:50:12;102384.00;;;4.58;43.37
53659;BME280;41524;35.624;139.698;2023-02-17T14:55:22;102385.00;;;4.90;42.66
53659;BME280;41524;35.624;139.698;2023-02-17T15:00:22;102388.00;;;5.48;41.54
53659;BME280;41524;35.624;139.698;2023-02-17T15:05:11;102391.00;;;4.18;42.80
53659;BME280;41524;35.624;139.698;2023-02-17T15:10:21;102385.00;;;4.80;41.56
53659;BME280;41524;35.624;139.698;2023-02-17T15:15:16;102379.00;;;4.78;41.82
53659;BME280;41524;35.624;139.698;2023-02-17T15:20:13;102376.00;;;4.84;41.98
53659;BME280;41524;35.624;139.698;2023-02-17T15:25:17;102360.00;;;4.92;40.78
53659;BME280;41524;35.624;139.698;2023-02-17T15:30:15;102357.00;;;4.14;41.73
53659;BME280;41524;35.624;139.698;2023-02-17T15:35:18;102347.00;;;4.16;41.78
53659;BME280;41524;35.624;139.698;2023-02-17T15:40:15;102354.00;;;4.71;41.67
53659;BME280;41524;35.624;139.698;2023-02-17T15:45:18;102366.00;;;4.57;41.74
53659;BME280;41524;35.624;139.698;2023-02-17T15:50:15;102368.00;;;4.60;41.32
53659;BME280;41524;35.624;139.698;2023-02-17T15:55:19;102348.00;;;4.19;41.88
53659;BME280;41524;35.624;139.698;2023-02-17T16:00:17;102341.00;;;4.55;41.27
53659;BME280;41524;35.624;139.698;2023-02-17T16:05:19;102346.00;;;4.47;41.85
53659;BME280;41524;35.624;139.698;2023-02-17T16:10:14;102352.00;;;4.38;41.64
53659;BME280;41524;35.624;139.698;2023-02-17T16:15:17;102341.00;;;4.22;42.16
53659;BME280;41524;35.624;139.698;2023-02-17T16:20:18;102339.00;;;4.15;42.22
53659;BME280;41524;35.624;139.698;2023-02-17T16:25:16;102345.00;;;4.12;42.84
53659;BME280;41524;35.624;139.698;2023-02-17T16:30:20;102334.00;;;4.28;41.91
53659;BME280;41524;35.624;139.698;2023-02-17T16:35:15;102320.00;;;4.08;42.43
53659;BME280;41524;35.624;139.698;2023-02-17T16:40:16;102309.00;;;4.60;41.76
53659;BME280;41524;35.624;139.698;2023-02-17T16:45:15;102310.00;;;4.42;41.56
53659;BME280;41524;35.624;139.698;2023-02-17T16:50:19;102325.00;;;4.67;41.38
53659;BME280;41524;35.624;139.698;2023-02-17T16:55:16;102334.00;;;4.30;41.77
53659;BME280;41524;35.624;139.698;2023-02-17T17:00:14;102329.00;;;4.89;41.13
53659;BME280;41524;35.624;139.698;2023-02-17T17:05:12;102344.00;;;4.85;40.99
53659;BME280;41524;35.624;139.698;2023-02-17T17:10:14;102337.00;;;4.41;41.15
53659;BME280;41524;35.624;139.698;2023-02-17T17:15:11;102328.00;;;4.14;41.34
53659;BME280;41524;35.624;139.698;2023-02-17T17:20:20;102334.00;;;3.50;42.47
53659;BME280;41524;35.624;139.698;2023-02-17T17:25:10;102319.00;;;4.14;41.47
53659;BME280;41524;35.624;139.698;2023-02-17T17:30:17;102304.00;;;4.27;41.84
53659;BME280;41524;35.624;139.698;2023-02-17T17:35:15;102291.00;;;4.43;41.13
53659;BME280;41524;35.624;139.698;2023-02-17T17:40:16;102282.00;;;4.32;41.15
53659;BME280;41524;35.624;139.698;2023-02-17T17:45:13;102277.00;;;4.40;41.45
53659;BME280;41524;35.624;139.698;2023-02-17T17:50:19;102290.00;;;4.66;40.76
53659;BME280;41524;35.624;139.698;2023-02-17T17:55:10;102310.00;;;4.46;40.25
53659;BME280;41524;35.624;139.698;2023-02-17T18:00:19;102309.00;;;4.44;40.25
53659;BME280;41524;35.624;139.698;2023-02-17T18:05:10;102283.00;;;3.90;41.26
53659;BME280;41524;35.624;139.698;2023-02-17T18:10:12;102247.00;;;4.43;40.36
53659;BME280;41524;35.624;139.698;2023-02-17T18:15:17;102252.00;;;4.59;40.01
53659;BME280;41524;35.624;139.698;2023-02-17T18:20:13;102244.00;;;4.05;41.27
53659;BME280;41524;35.624;139.698;2023-02-17T18:25:11;102243.00;;;4.59;39.74
53659;BME280;41524;35.624;139.698;2023-02-17T18:30:12;102239.00;;;4.24;40.68
53659;BME280;41524;35.624;139.698;2023-02-17T18:35:11;102261.00;;;4.11;40.73
53659;BME280;41524;35.624;139.698;2023-02-17T18:40:14;102268.00;;;4.01;40.41
53659;BME280;41524;35.624;139.698;2023-02-17T18:45:14;102272.00;;;3.30;41.31
53659;BME280;41524;35.624;139.698;2023-02-17T18:50:11;102279.00;;;3.57;41.21
53659;BME280;41524;35.624;139.698;2023-02-17T18:55:12;102283.00;;;3.60;42.00
53659;BME280;41524;35.624;139.698;2023-02-17T19:00:13;102294.00;;;3.22;41.40
53659;BME280;41524;35.624;139.698;2023-02-17T19:05:12;102283.00;;;3.33;41.16
53659;BME280;41524;35.624;139.698;2023-02-17T19:10:11;102275.00;;;3.54;40.79
53659;BME280;41524;35.624;139.698;2023-02-17T19:15:12;102272.00;;;3.52;40.85
53659;BME280;41524;35.624;139.698;2023-02-17T19:20:11;102268.00;;;3.72;40.83
53659;BME280;41524;35.624;139.698;2023-02-17T19:25:12;102286.00;;;3.35;41.14
53659;BME280;41524;35.624;139.698;2023-02-17T19:30:12;102284.00;;;3.17;41.78
53659;BME280;41524;35.624;139.698;2023-02-17T19:35:11;102273.00;;;3.23;41.98
53659;BME280;41524;35.624;139.698;2023-02-17T19:40:10;102273.00;;;3.46;41.63
53659;BME280;41524;35.624;139.698;2023-02-17T19:45:11;102288.00;;;2.75;42.00
53659;BME280;41524;35.624;139.698;2023-02-17T19:55:11;102311.00;;;3.57;41.81
53659;BME280;41524;35.624;139.698;2023-02-17T20:00:16;102309.00;;;4.34;40.68
53659;BME280;41524;35.624;139.698;2023-02-17T20:05:12;102308.00;;;2.87;43.19
53659;BME280;41524;35.624;139.698;2023-02-17T20:10:12;102304.00;;;3.62;42.15
53659;BME280;41524;35.624;139.698;2023-02-17T20:15:12;102308.00;;;2.96;43.26
53659;BME280;41524;35.624;139.698;2023-02-17T20:20:11;102312.00;;;2.60;43.54
53659;BME280;41524;35.624;139.698;2023-02-17T20:25:11;102303.00;;;3.03;42.90
53659;BME280;41524;35.624;139.698;2023-02-17T20:30:14;102302.00;;;3.14;42.89
53659;BME280;41524;35.624;139.698;2023-02-17T20:35:13;102294.00;;;3.63;42.11
53659;BME280;41524;35.624;139.698;2023-02-17T20:40:11;102296.00;;;3.47;42.19
53659;BME280;41524;35.624;139.698;2023-02-17T20:45:11;102299.00;;;2.20;44.92
53659;BME280;41524;35.624;139.698;2023-02-17T20:50:14;102306.00;;;3.14;43.38
53659;BME280;41524;35.624;139.698;2023-02-17T20:55:10;102305.00;;;2.38;44.64
53659;BME280;41524;35.624;139.698;2023-02-17T21:00:14;102305.00;;;2.66;43.69
53659;BME280;41524;35.624;139.698;2023-02-17T21:05:13;102299.00;;;2.74;44.23
53659;BME280;41524;35.624;139.698;2023-02-17T21:10:16;102300.00;;;3.26;43.86
53659;BME280;41524;35.624;139.698;2023-02-17T21:15:11;102319.00;;;3.00;44.15
53659;BME280;41524;35.624;139.698;2023-02-17T21:20:13;102328.00;;;3.73;42.96
53659;BME280;41524;35.624;139.698;2023-02-17T21:25:12;102329.00;;;2.52;44.36
53659;BME280;41524;35.624;139.698;2023-02-17T21:30:11;102351.00;;;3.24;43.32
53659;BME280;41524;35.624;139.698;2023-02-17T21:35:13;102359.00;;;2.71;45.05
53659;BME280;41524;35.624;139.698;2023-02-17T21:40:12;102368.00;;;2.47;45.16
53659;BME280;41524;35.624;139.698;2023-02-17T21:45:11;102368.00;;;4.30;41.98
53659;BME280;41524;35.624;139.698;2023-02-17T21:50:11;102378.00;;;3.09;43.52
53659;BME280;41524;35.624;139.698;2023-02-17T21:55:12;102386.00;;;3.33;43.04
53659;BME280;41524;35.624;139.698;2023-02-17T22:00:12;102400.00;;;4.36;41.92
53659;BME280;41524;35.624;139.698;2023-02-17T22:05:11;102390.00;;;3.59;43.45
53659;BME280;41524;35.624;139.698;2023-02-17T22:10:13;102395.00;;;3.65;43.71
53659;BME280;41524;35.624;139.698;2023-02-17T22:15:16;102389.00;;;2.87;45.02
53659;BME280;41524;35.624;139.698;2023-02-17T22:20:16;102381.00;;;3.39;44.10
53659;BME280;41524;35.624;139.698;2023-02-17T22:25:11;102386.00;;;3.21;43.96
53659;BME280;41524;35.624;139.698;2023-02-17T22:30:12;102378.00;;;4.94;41.07
53659;BME280;41524;35.624;139.698;2023-02-17T22:35:12;102399.00;;;4.68;41.04
53659;BME280;41524;35.624;139.698;2023-02-17T22:40:13;102398.00;;;5.45;40.36
53659;BME280;41524;35.624;139.698;2023-02-17T22:45:16;102405.00;;;4.21;40.63
53659;BME280;41524;35.624;139.698;2023-02-17T22:50:11;102407.00;;;6.30;40.72
53659;BME280;41524;35.624;139.698;2023-02-17T22:55:10;102399.00;;;5.69;38.59
53659;BME280;41524;35.624;139.698;2023-02-17T23:00:16;102390.00;;;7.13;38.74
53659;BME280;41524;35.624;139.698;2023-02-17T23:05:16;102403.00;;;5.99;38.64
53659;BME280;41524;35.624;139.698;2023-02-17T23:10:11;102392.00;;;7.27;38.24
53659;BME280;41524;35.624;139.698;2023-02-17T23:15:19;102395.00;;;4.24;42.20
53659;BME280;41524;35.624;139.698;2023-02-17T23:20:15;102389.00;;;8.25;36.52
53659;BME280;41524;35.624;139.698;2023-02-17T23:25:11;102395.00;;;7.31;36.22
53659;BME280;41524;35.624;139.698;2023-02-17T23:30:19;102382.00;;;7.08;40.70
53659;BME280;41524;35.624;139.698;2023-02-17T23:35:12;102367.00;;;8.04;37.61
53659;BME280;41524;35.624;139.698;2023-02-17T23:40:12;102351.00;;;8.55;35.65
53659;BME280;41524;35.624;139.698;2023-02-17T23:45:17;102355.00;;;9.42;35.14
53659;BME280;41524;35.624;139.698;2023-02-17T23:50:11;102355.00;;;9.51;34.43
53659;BME280;41524;35.624;139.698;2023-02-17T23:55:18;102376.00;;;10.11;32.79
